Time;durP1;ratioP1;P1;durP2;ratioP2;P2;SDS_P1;SDS_P2;PMS_P1;PMS_P2;Temp;Humidity;BMP_temperature;BMP_pressure;BME280_temperature;BME280_humidity;BME280_pressure;Samples;Min_cycle;Max_cycle;Signal;HPM_P1;HPM_P2
2023/03/14 00:01:32;;;;;;;0.77;0.50;;;10.00;47.00;;;;;;7369121;19;20007;-63
2023/03/14 00:04:02;;;;;;;0.75;0.50;;;10.10;46.60;;;;;;7369788;19;20683;-63
2023/03/14 00:06:35;;;;;;;1.08;0.52;;;10.10;45.50;;;;;;7390975;19;20019;-63
2023/03/14 00:09:05;;;;;;;2.28;0.70;;;10.10;43.60;;;;;;7368756;19;20023;-63
2023/03/14 00:11:35;;;;;;;1.38;0.80;;;10.10;44.20;;;;;;7369089;19;20010;-63
2023/03/14 00:14:05;;;;;;;1.75;0.80;;;10.20;43.30;;;;;;7368914;19;20015;-63
2023/03/14 00:16:34;;;;;;;1.05;0.82;;;10.20;43.80;;;;;;7369329;19;20018;-64
2023/03/14 00:19:04;;;;;;;2.65;0.85;;;10.10;44.80;;;;;;7367555;19;20014;-63
2023/03/14 00:21:37;;;;;;;2.05;0.70;;;10.10;46.40;;;;;;7377280;19;20014;-63
2023/03/14 00:24:08;;;;;;;0.82;0.40;;;10.10;46.40;;;;;;7391522;19;20019;-63
2023/03/14 00:26:37;;;;;;;1.00;0.43;;;10.20;45.60;;;;;;7367654;19;20018;-63
2023/03/14 00:29:07;;;;;;;0.80;0.60;;;10.10;45.40;;;;;;7367494;19;20014;-63
2023/03/14 00:31:39;;;;;;;1.23;0.55;;;10.10;45.50;;;;;;7368547;19;20016;-63
2023/03/14 00:34:09;;;;;;;1.42;0.52;;;10.10;46.70;;;;;;7369130;19;20018;-63
2023/03/14 00:36:41;;;;;;;3.22;0.75;;;10.00;46.80;;;;;;7368592;19;20015;-64
2023/03/14 00:39:11;;;;;;;0.80;0.50;;;10.00;47.70;;;;;;7387576;19;20014;-63
2023/03/14 00:41:41;;;;;;;2.15;0.50;;;10.10;47.80;;;;;;7368197;19;20419;-63
2023/03/14 00:44:10;;;;;;;1.20;0.65;;;10.00;46.80;;;;;;7368740;19;20010;-63
2023/03/14 00:46:40;;;;;;;0.70;0.40;;;10.00;47.40;;;;;;7367316;19;20478;-63
2023/03/14 00:49:10;;;;;;;2.55;1.20;;;10.00;47.20;;;;;;7367062;19;20015;-63
2023/03/14 00:51:42;;;;;;;2.15;0.52;;;10.10;47.60;;;;;;7369243;19;20014;-64
2023/03/14 00:54:12;;;;;;;1.08;0.65;;;10.10;46.50;;;;;;7389944;19;20021;-63
2023/03/14 00:56:42;;;;;;;2.38;0.50;;;10.10;45.40;;;;;;7368521;19;20070;-64
2023/03/14 00:59:12;;;;;;;1.25;0.47;;;10.10;44.80;;;;;;7366706;19;20528;-64
2023/03/14 01:01:42;;;;;;;1.20;0.55;;;10.10;44.50;;;;;;7368067;19;20540;-64
2023/03/14 01:04:13;;;;;;;1.33;0.60;;;10.10;42.60;;;;;;7367976;19;20384;-64
2023/03/14 01:06:45;;;;;;;1.35;0.50;;;10.10;42.20;;;;;;7368275;19;20024;-63
2023/03/14 01:09:17;;;;;;;0.80;0.57;;;10.10;42.50;;;;;;7388191;19;20515;-63
2023/03/14 01:11:48;;;;;;;0.82;0.35;;;10.10;42.20;;;;;;7367840;19;20023;-63
2023/03/14 01:14:18;;;;;;;0.90;0.50;;;10.10;42.30;;;;;;7367947;19;20015;-63
2023/03/14 01:16:48;;;;;;;1.13;0.50;;;10.10;42.70;;;;;;7367595;19;20119;-63
2023/03/14 01:19:17;;;;;;;0.75;0.50;;;10.10;42.50;;;;;;7365556;19;20046;-64
2023/03/14 01:21:50;;;;;;;0.90;0.60;;;10.10;41.40;;;;;;7366964;19;20542;-63
2023/03/14 01:24:20;;;;;;;1.52;0.50;;;10.20;40.80;;;;;;7388465;19;20059;-63
2023/03/14 01:26:50;;;;;;;0.90;0.40;;;10.20;39.60;;;;;;7367203;19;20028;-64
2023/03/14 01:29:19;;;;;;;1.20;0.60;;;10.20;39.10;;;;;;7364516;19;20534;-63
2023/03/14 01:31:49;;;;;;;2.35;0.40;;;10.30;39.00;;;;;;7366170;19;20006;-64
2023/03/14 01:34:19;;;;;;;0.68;0.52;;;10.30;36.80;;;;;;7367859;19;20054;-63
2023/03/14 01:36:52;;;;;;;1.95;0.55;;;10.30;36.10;;;;;;7365709;19;20050;-63
2023/03/14 01:39:21;;;;;;;1.17;0.30;;;10.30;36.10;;;;;;7384244;19;20010;-63
2023/03/14 01:41:51;;;;;;;2.08;0.68;;;10.30;35.00;;;;;;7366630;19;20011;-63
2023/03/14 01:44:21;;;;;;;3.92;0.50;;;10.30;33.10;;;;;;7366040;19;20011;-63
2023/03/14 01:46:51;;;;;;;0.65;0.30;;;10.30;33.00;;;;;;7365169;19;20017;-63
2023/03/14 01:49:27;;;;;;;1.05;0.57;;;10.30;32.90;;;;;;7361633;19;20007;-63
2023/03/14 01:52:02;;;;;;;0.70;0.50;;;10.30;32.30;;;;;;7365274;19;20010;-63
2023/03/14 01:54:36;;;;;;;2.40;0.63;;;10.20;34.00;;;;;;7387642;19;20015;-63
2023/03/14 01:57:10;;;;;;;0.80;0.40;;;10.20;33.00;;;;;;7366778;19;20018;-62
2023/03/14 01:59:41;;;;;;;0.93;0.50;;;10.30;30.30;;;;;;7364055;19;20046;-63
2023/03/14 02:02:14;;;;;;;1.13;0.50;;;10.30;29.70;;;;;;7365618;19;20010;-63
2023/03/14 02:04:44;;;;;;;1.17;0.60;;;10.20;32.90;;;;;;7365786;19;20011;-63
2023/03/14 02:07:22;;;;;;;2.15;0.47;;;10.00;34.20;;;;;;7366521;19;20463;-62
2023/03/14 02:09:52;;;;;;;0.40;0.30;;;10.10;31.10;;;;;;7362526;19;20010;-62
2023/03/14 02:12:24;;;;;;;1.65;0.98;;;10.20;29.20;;;;;;7387992;19;20515;-63
2023/03/14 02:14:53;;;;;;;0.70;0.47;;;10.20;27.30;;;;;;7366078;19;20010;-62
2023/03/14 02:17:26;;;;;;;0.52;0.43;;;10.30;25.00;;;;;;7364781;19;20009;-62
2023/03/14 02:20:12;;;;;;;1.48;0.75;;;10.20;25.20;;;;;;7363008;19;20011;-63
2023/03/14 02:22:47;;;;;;;1.23;0.50;;;10.30;21.20;;;;;;7365759;19;20017;-63
2023/03/14 02:25:24;;;;;;;1.15;0.40;;;10.30;20.10;;;;;;7366104;19;20010;-63
2023/03/14 02:27:57;;;;;;;3.35;0.52;;;10.30;19.30;;;;;;7365545;19;20011;-63
2023/03/14 02:30:30;;;;;;;1.58;0.50;;;10.30;18.40;;;;;;7384128;19;20042;-63
2023/03/14 02:33:03;;;;;;;1.75;0.75;;;10.20;19.50;;;;;;7363744;19;20388;-63
2023/03/14 02:35:39;;;;;;;1.48;0.38;;;10.30;18.80;;;;;;7365025;19;20010;-63
2023/03/14 02:38:17;;;;;;;0.50;0.38;;;10.30;16.40;;;;;;7365386;19;20018;-64
2023/03/14 02:40:47;;;;;;;1.48;0.40;;;10.30;16.10;;;;;;7362557;19;20015;-64
2023/03/14 02:43:19;;;;;;;0.50;0.32;;;10.30;17.20;;;;;;7365292;19;20532;-64
2023/03/14 02:45:50;;;;;;;0.60;0.50;;;10.30;17.80;;;;;;7365761;19;20021;-64
2023/03/14 02:48:23;;;;;;;1.30;0.30;;;10.30;16.60;;;;;;7385588;19;20505;-64
2023/03/14 02:50:56;;;;;;;1.02;0.40;;;10.30;16.70;;;;;;7365413;19;20024;-64
2023/03/14 02:53:29;;;;;;;2.42;0.40;;;10.30;17.80;;;;;;7369882;19;20014;-64
2023/03/14 02:55:59;;;;;;;0.40;0.22;;;10.20;18.70;;;;;;7373106;19;20018;-64
2023/03/14 02:58:32;;;;;;;3.13;0.45;;;10.20;20.30;;;;;;7371541;19;20018;-64
2023/03/14 03:01:01;;;;;;;1.67;0.50;;;10.10;19.90;;;;;;7370808;19;20481;-63
2023/03/14 03:03:31;;;;;;;0.90;0.50;;;10.10;19.70;;;;;;7392877;19;20490;-64
2023/03/14 03:06:01;;;;;;;1.13;0.40;;;10.10;18.60;;;;;;7372633;19;20021;-64
2023/03/14 03:08:31;;;;;;;2.38;0.60;;;10.10;19.30;;;;;;7369866;19;20021;-64
2023/03/14 03:11:01;;;;;;;2.38;0.43;;;10.10;18.90;;;;;;7370901;19;20896;-63
2023/03/14 03:13:34;;;;;;;1.88;0.40;;;10.10;18.80;;;;;;7370610;19;20467;-64
2023/03/14 03:16:04;;;;;;;0.65;0.30;;;10.10;18.20;;;;;;7371987;19;20010;-64
2023/03/14 03:18:34;;;;;;;1.10;0.70;;;10.00;18.00;;;;;;7383922;19;20049;-64
2023/03/14 03:21:05;;;;;;;2.88;0.45;;;10.00;17.90;;;;;;7392442;19;20086;-64
2023/03/14 03:23:35;;;;;;;1.92;0.35;;;10.00;17.90;;;;;;7370556;19;20025;-64
2023/03/14 03:26:05;;;;;;;2.38;0.40;;;10.10;16.60;;;;;;7371152;19;20021;-64
2023/03/14 03:28:37;;;;;;;1.38;0.63;;;10.10;15.10;;;;;;7369149;19;20516;-64
2023/03/14 03:31:11;;;;;;;0.88;0.50;;;10.00;15.60;;;;;;7370000;19;20021;-63
2023/03/14 03:33:41;;;;;;;0.60;0.40;;;10.00;15.10;;;;;;7371701;19;20088;-63
2023/03/14 03:36:12;;;;;;;1.42;0.47;;;10.00;15.00;;;;;;7393362;19;20014;-63
2023/03/14 03:38:42;;;;;;;0.50;0.30;;;10.00;13.00;;;;;;7369613;19;20018;-63
2023/03/14 03:41:12;;;;;;;1.17;0.50;;;10.00;12.20;;;;;;7370078;19;20082;-63
2023/03/14 03:43:44;;;;;;;3.50;0.50;;;10.00;12.70;;;;;;7370209;19;20045;-62
2023/03/14 03:46:15;;;;;;;2.65;0.60;;;10.00;13.00;;;;;;7370654;19;20458;-64
2023/03/14 03:48:44;;;;;;;1.30;0.65;;;9.90;14.00;;;;;;7368932;19;20003;-63
2023/03/14 03:51:15;;;;;;;4.57;0.80;;;9.90;13.70;;;;;;7392977;19;20006;-63
2023/03/14 03:53:45;;;;;;;2.78;0.77;;;9.90;12.90;;;;;;7368878;19;20022;-63
2023/03/14 03:56:15;;;;;;;1.05;0.60;;;9.90;12.20;;;;;;7370738;19;20006;-63
2023/03/14 03:58:48;;;;;;;0.77;0.45;;;9.90;11.90;;;;;;7368784;19;20019;-64
2023/03/14 04:01:17;;;;;;;4.15;0.82;;;9.80;12.90;;;;;;7370128;19;20006;-63
2023/03/14 04:03:47;;;;;;;2.72;0.75;;;9.80;13.00;;;;;;7370463;19;20014;-63
2023/03/14 04:06:17;;;;;;;3.97;1.15;;;9.80;10.90;;;;;;7391756;19;20010;-63
2023/03/14 04:08:47;;;;;;;3.53;0.70;;;9.80;11.20;;;;;;7367953;19;20151;-63
2023/03/14 04:11:17;;;;;;;3.80;0.68;;;9.80;10.80;;;;;;7370270;19;20031;-63
2023/03/14 04:13:49;;;;;;;3.45;0.63;;;9.80;11.30;;;;;;7369277;19;20014;-63
2023/03/14 04:16:21;;;;;;;2.30;0.70;;;9.80;10.30;;;;;;7371155;19;20755;-63
2023/03/14 04:18:51;;;;;;;1.63;0.50;;;9.70;10.10;;;;;;7366544;19;20376;-63
2023/03/14 04:21:21;;;;;;;2.38;0.63;;;9.70;9.30;;;;;;7391362;19;20015;-63
2023/03/14 04:23:51;;;;;;;4.32;0.88;;;9.70;10.10;;;;;;7368291;19;20035;-63
2023/03/14 04:26:21;;;;;;;1.85;0.60;;;9.70;10.10;;;;;;7368779;19;20470;-63
2023/03/14 04:28:53;;;;;;;1.00;0.60;;;9.60;9.20;;;;;;7364394;19;20466;-63
2023/03/14 04:31:24;;;;;;;5.32;0.80;;;9.70;7.60;;;;;;7367131;19;20014;-64
2023/03/14 04:33:54;;;;;;;1.77;0.60;;;9.70;7.60;;;;;;7390900;19;20019;-69
2023/03/14 04:36:24;;;;;;;2.97;0.63;;;9.70;6.10;;;;;;7366128;19;20018;-64
2023/03/14 04:38:54;;;;;;;3.55;0.70;;;9.70;6.80;;;;;;7368045;19;20093;-63
2023/03/14 04:41:23;;;;;;;3.78;0.75;;;9.70;6.30;;;;;;7366128;19;20505;-63
2023/03/14 04:43:56;;;;;;;3.22;0.75;;;9.70;4.60;;;;;;7367197;19;20011;-63
2023/03/14 04:46:26;;;;;;;3.35;1.15;;;9.70;5.10;;;;;;7367420;19;20015;-64
2023/03/14 04:48:56;;;;;;;2.22;0.70;;;9.60;5.00;;;;;;7388996;19;20278;-64
2023/03/14 04:51:27;;;;;;;3.72;0.60;;;9.50;6.70;;;;;;7366547;19;20119;-63
2023/03/14 04:53:57;;;;;;;2.33;0.93;;;9.50;5.70;;;;;;7366857;19;20025;-63
2023/03/14 04:56:27;;;;;;;3.17;0.88;;;9.50;4.50;;;;;;7367302;19;20018;-64
2023/03/14 04:58:59;;;;;;;2.40;0.98;;;9.60;4.60;;;;;;7365673;19;20094;-64
2023/03/14 05:01:29;;;;;;;4.55;0.80;;;9.50;4.50;;;;;;7367182;19;20101;-64
2023/03/14 05:03:59;;;;;;;3.13;1.08;;;9.50;4.50;;;;;;7389259;19;20018;-64
2023/03/14 05:06:29;;;;;;;3.80;0.70;;;9.50;5.00;;;;;;7366094;19;20474;-64
2023/03/14 05:08:59;;;;;;;3.95;0.65;;;9.40;5.80;;;;;;7365117;19;20014;-64
2023/03/14 05:11:29;;;;;;;2.15;0.90;;;9.40;6.80;;;;;;7367505;19;20022;-64
2023/03/14 05:14:01;;;;;;;3.55;0.73;;;9.40;4.40;;;;;;7365328;19;20098;-64
2023/03/14 05:16:31;;;;;;;5.13;0.70;;;9.50;3.50;;;;;;7367151;19;20471;-64
2023/03/14 05:19:01;;;;;;;5.22;1.23;;;9.50;3.80;;;;;;7386232;19;20026;-64
2023/03/14 05:21:31;;;;;;;3.22;0.73;;;9.40;3.70;;;;;;7365691;19;20066;-64
2023/03/14 05:24:01;;;;;;;3.97;0.93;;;9.40;4.40;;;;;;7367498;19;20054;-64
2023/03/14 05:26:30;;;;;;;4.53;1.20;;;9.40;4.40;;;;;;7367541;19;20017;-64
2023/03/14 05:29:03;;;;;;;5.75;0.77;;;9.40;2.90;;;;;;7363793;19;20038;-64
2023/03/14 05:31:33;;;;;;;3.13;0.77;;;9.30;4.70;;;;;;7364240;19;20094;-63
2023/03/14 05:34:02;;;;;;;5.32;1.10;;;9.30;4.30;;;;;;7389033;19;20018;-62
2023/03/14 05:36:32;;;;;;;3.60;0.70;;;9.40;3.60;;;;;;7364892;19;20074;-63
2023/03/14 05:39:02;;;;;;;6.18;0.80;;;9.40;3.90;;;;;;7364080;19;20014;-63
2023/03/14 05:41:32;;;;;;;4.82;0.77;;;9.50;2.10;;;;;;7365367;19;20018;-63
2023/03/14 05:44:04;;;;;;;3.55;0.80;;;9.40;2.40;;;;;;7364898;19;20019;-63
2023/03/14 05:46:34;;;;;;;4.00;1.17;;;9.50;2.50;;;;;;7366742;19;20518;-63
2023/03/14 05:49:04;;;;;;;1.92;0.70;;;9.40;2.70;;;;;;7386855;19;20019;-63
2023/03/14 05:51:34;;;;;;;2.63;1.20;;;9.60;1.00;;;;;;7363635;19;20367;-63
2023/03/14 05:54:03;;;;;;;3.95;0.90;;;9.60;1.00;;;;;;7365679;19;20034;-63
2023/03/14 05:56:33;;;;;;;3.47;1.10;;;9.60;1.00;;;;;;7364886;19;20014;-63
2023/03/14 05:59:08;;;;;;;2.70;0.80;;;9.60;1.00;;;;;;7363058;19;20045;-63
2023/03/14 06:01:38;;;;;;;2.15;0.80;;;9.60;1.00;;;;;;7365220;19;20460;-62
2023/03/14 06:04:08;;;;;;;2.53;0.80;;;9.60;1.00;;;;;;7388207;19;20092;-63
2023/03/14 06:06:38;;;;;;;4.43;0.93;;;9.60;1.00;;;;;;7364997;19;20015;-62
2023/03/14 06:09:07;;;;;;;3.70;0.93;;;9.60;1.00;;;;;;7361591;19;20545;-62
2023/03/14 06:11:37;;;;;;;2.00;0.70;;;9.60;1.00;;;;;;7364874;19;20021;-63
2023/03/14 06:14:10;;;;;;;4.45;1.27;;;9.60;1.00;;;;;;7364285;19;20090;-62
2023/03/14 06:16:39;;;;;;;2.70;1.00;;;9.60;1.00;;;;;;7365069;19;20034;-63
2023/03/14 06:19:10;;;;;;;3.70;0.80;;;9.60;1.00;;;;;;7385979;19;20025;-63
2023/03/14 06:21:40;;;;;;;3.88;0.90;;;9.70;1.00;;;;;;7363810;19;20132;-63
2023/03/14 06:24:09;;;;;;;2.70;0.82;;;9.60;1.00;;;;;;7367483;19;20018;-63
2023/03/14 06:26:39;;;;;;;2.88;0.50;;;9.60;1.00;;;;;;7372023;19;20034;-63
2023/03/14 06:29:13;;;;;;;2.50;0.70;;;9.60;1.00;;;;;;7368950;19;20014;-65
2023/03/14 06:31:43;;;;;;;3.23;1.23;;;9.60;1.00;;;;;;7368201;19;20863;-63
2023/03/14 06:34:13;;;;;;;2.50;0.75;;;9.60;1.00;;;;;;7391669;19;20358;-63
2023/03/14 06:36:43;;;;;;;4.13;0.95;;;9.70;1.00;;;;;;7370221;19;20400;-63
2023/03/14 06:39:13;;;;;;;3.00;0.70;;;9.70;1.00;;;;;;7368925;19;20017;-63
2023/03/14 06:41:43;;;;;;;6.28;1.00;;;9.80;1.00;;;;;;7370443;19;20498;-63
2023/03/14 06:44:15;;;;;;;2.33;0.75;;;9.80;1.00;;;;;;7371689;19;20129;-63
2023/03/14 06:46:45;;;;;;;2.97;1.00;;;9.80;1.00;;;;;;7372078;19;20105;-64
2023/03/14 06:49:14;;;;;;;2.40;0.80;;;9.80;1.00;;;;;;7391411;19;20369;-64
2023/03/14 06:51:44;;;;;;;1.65;0.80;;;9.70;1.00;;;;;;7369165;19;20015;-63
2023/03/14 06:54:14;;;;;;;3.72;1.00;;;9.90;1.00;;;;;;7370985;19;20023;-63
2023/03/14 06:56:44;;;;;;;3.03;1.02;;;10.00;1.00;;;;;;7370175;19;20339;-63
2023/03/14 06:59:16;;;;;;;4.63;0.90;;;10.10;1.00;;;;;;7369340;19;20695;-64
2023/03/14 07:01:47;;;;;;;4.07;1.05;;;10.20;1.00;;;;;;7371200;19;20014;-63
2023/03/14 07:04:17;;;;;;;2.20;0.77;;;10.30;1.00;;;;;;7393459;19;20029;-63
2023/03/14 07:06:47;;;;;;;2.55;0.90;;;10.40;1.00;;;;;;7393460;19;20046;-63
2023/03/14 07:09:18;;;;;;;5.05;0.90;;;10.60;1.00;;;;;;7367549;19;20014;-63
2023/03/14 07:11:48;;;;;;;3.17;0.90;;;10.60;1.00;;;;;;7369983;19;20017;-63
2023/03/14 07:14:20;;;;;;;3.92;1.00;;;10.70;1.00;;;;;;7371168;19;20010;-63
2023/03/14 07:16:50;;;;;;;3.30;0.80;;;10.90;1.00;;;;;;7369781;19;20014;-63
2023/03/14 07:19:20;;;;;;;1.73;0.70;;;11.00;1.00;;;;;;7367353;19;20021;-64
2023/03/14 07:21:50;;;;;;;1.67;0.47;;;11.30;1.00;;;;;;7391640;19;20078;-63
2023/03/14 07:24:20;;;;;;;0.70;0.30;;;11.40;1.00;;;;;;7369738;19;20034;-63
2023/03/14 07:26:49;;;;;;;1.55;0.50;;;11.50;1.00;;;;;;7369224;19;20017;-63
2023/03/14 07:29:22;;;;;;;3.63;0.70;;;11.50;1.00;;;;;;7367522;19;20035;-62
2023/03/14 07:31:52;;;;;;;1.88;0.60;;;11.40;1.00;;;;;;7368997;19;20006;-63
2023/03/14 07:34:22;;;;;;;2.45;0.57;;;11.50;1.00;;;;;;7368392;19;20011;-62
2023/03/14 07:36:52;;;;;;;2.65;0.60;;;11.50;1.00;;;;;;7390720;19;20093;-63
2023/03/14 07:39:22;;;;;;;2.00;0.60;;;11.90;1.00;;;;;;7366259;19;20015;-63
2023/03/14 07:41:51;;;;;;;4.78;1.13;;;11.90;1.00;;;;;;7369032;19;20010;-63
2023/03/14 07:44:24;;;;;;;3.17;0.50;;;12.10;1.00;;;;;;7368503;19;20030;-63
2023/03/14 07:46:53;;;;;;;2.45;0.50;;;12.00;1.00;;;;;;7369384;19;20375;-63
2023/03/14 07:49:23;;;;;;;2.47;0.55;;;11.90;1.00;;;;;;7365258;19;20018;-64
2023/03/14 07:51:53;;;;;;;2.17;0.63;;;12.00;1.00;;;;;;7390586;19;20477;-63
2023/03/14 07:54:24;;;;;;;1.48;0.45;;;12.00;1.00;;;;;;7368295;19;20006;-63
2023/03/14 07:56:54;;;;;;;0.98;0.50;;;12.00;1.00;;;;;;7368462;19;20495;-63
2023/03/14 07:59:26;;;;;;;1.15;0.70;;;12.00;1.00;;;;;;7365975;19;20423;-63
2023/03/14 08:01:56;;;;;;;2.03;0.57;;;11.90;1.00;;;;;;7370213;19;20019;-64
2023/03/14 08:04:27;;;;;;;2.78;0.80;;;12.00;1.00;;;;;;7367146;19;20014;-63
2023/03/14 08:06:56;;;;;;;1.33;0.57;;;12.10;1.00;;;;;;7391831;19;20018;-64
2023/03/14 08:09:26;;;;;;;3.53;0.40;;;12.30;1.00;;;;;;7365360;19;20018;-63
2023/03/14 08:11:56;;;;;;;0.40;0.30;;;12.60;1.00;;;;;;7367045;19;20034;-63
2023/03/14 08:14:30;;;;;;;1.70;0.50;;;12.70;1.00;;;;;;7367553;19;20019;-63
2023/03/14 08:17:00;;;;;;;0.60;0.28;;;12.70;1.00;;;;;;7369618;19;20399;-64
2023/03/14 08:19:30;;;;;;;20.25;12.68;;;12.90;1.00;;;;;;7365946;19;20019;-64
2023/03/14 08:22:00;;;;;;;1.35;0.30;;;13.10;1.00;;;;;;7389042;19;20046;-64
2023/03/14 08:24:30;;;;;;;4.78;0.30;;;13.00;1.00;;;;;;7367474;19;20011;-63
2023/03/14 08:26:59;;;;;;;0.90;0.50;;;13.00;1.00;;;;;;7365463;19;20763;-64
2023/03/14 08:29:32;;;;;;;1.23;0.30;;;13.20;1.00;;;;;;7365943;19;20043;-64
2023/03/14 08:32:02;;;;;;;1.35;0.40;;;12.90;1.00;;;;;;7368833;19;20021;-64
2023/03/14 08:34:32;;;;;;;0.40;0.20;;;12.70;1.00;;;;;;7366513;19;20404;-63
2023/03/14 08:37:02;;;;;;;0.57;0.30;;;12.60;1.00;;;;;;7391098;19;20007;-63
2023/03/14 08:39:39;;;;;;;1.65;0.43;;;12.80;1.00;;;;;;7364810;19;20466;-63
2023/03/14 08:42:09;;;;;;;1.63;0.35;;;13.10;1.00;;;;;;7367933;19;20039;-64
2023/03/14 08:44:41;;;;;;;0.75;0.20;;;13.10;1.00;;;;;;7366195;19;20007;-63
2023/03/14 08:47:11;;;;;;;1.10;0.10;;;13.30;1.00;;;;;;7366828;19;20109;-64
2023/03/14 08:49:42;;;;;;;1.52;0.40;;;13.20;1.00;;;;;;7362942;19;20019;-63
2023/03/14 08:52:12;;;;;;;0.38;0.30;;;13.20;1.00;;;;;;7389840;19;20025;-64
2023/03/14 08:54:42;;;;;;;1.20;0.30;;;13.30;1.00;;;;;;7366376;19;20018;-63
2023/03/14 08:57:11;;;;;;;2.53;0.40;;;13.70;1.00;;;;;;7367559;19;20006;-64
2023/03/14 08:59:44;;;;;;;0.88;0.30;;;13.50;1.00;;;;;;7364415;19;20094;-64
2023/03/14 09:02:14;;;;;;;1.55;0.45;;;13.20;1.00;;;;;;7368661;19;20499;-62
2023/03/14 09:04:44;;;;;;;2.63;0.35;;;13.10;1.00;;;;;;7366311;19;20015;-63
2023/03/14 09:07:14;;;;;;;1.67;0.60;;;12.90;1.00;;;;;;7390188;19;20066;-63
2023/03/14 09:09:44;;;;;;;1.98;0.47;;;13.00;1.00;;;;;;7364194;19;20014;-63
2023/03/14 09:12:14;;;;;;;1.98;0.50;;;13.10;1.00;;;;;;7366508;19;20014;-63
2023/03/14 09:14:46;;;;;;;0.70;0.40;;;13.10;1.00;;;;;;7365900;19;20015;-63
2023/03/14 09:17:16;;;;;;;0.60;0.30;;;13.10;1.00;;;;;;7366861;19;20007;-63
2023/03/14 09:19:46;;;;;;;2.92;0.50;;;13.10;1.00;;;;;;7363766;19;20019;-63
2023/03/14 09:22:16;;;;;;;1.48;0.30;;;13.00;1.00;;;;;;7389092;19;20014;-64
2023/03/14 09:24:46;;;;;;;2.10;0.47;;;13.00;1.00;;;;;;7366279;19;20015;-64
2023/03/14 09:27:15;;;;;;;0.60;0.45;;;12.80;1.00;;;;;;7366516;19;20011;-63
2023/03/14 09:29:48;;;;;;;3.28;1.23;;;12.80;1.00;;;;;;7363714;19;20082;-63
2023/03/14 09:32:18;;;;;;;1.40;0.40;;;12.80;1.00;;;;;;7366330;19;20387;-63
2023/03/14 09:34:47;;;;;;;1.88;0.50;;;12.40;1.00;;;;;;7364968;19;20028;-63
2023/03/14 09:37:19;;;;;;;1.85;0.47;;;12.40;1.00;;;;;;7388216;19;20529;-63
2023/03/14 09:39:49;;;;;;;1.00;0.40;;;12.40;1.00;;;;;;7385198;19;20466;-63
2023/03/14 09:42:22;;;;;;;1.90;0.30;;;12.20;1.00;;;;;;7366612;19;20010;-63
2023/03/14 09:44:59;;;;;;;0.50;0.30;;;12.40;1.00;;;;;;7363023;19;20390;-62
2023/03/14 09:47:30;;;;;;;2.80;0.35;;;12.50;1.00;;;;;;7363879;19;20479;-63
2023/03/14 09:50:01;;;;;;;0.82;0.38;;;12.50;1.00;;;;;;7359752;19;20006;-63
2023/03/14 09:52:33;;;;;;;0.40;0.30;;;12.40;1.00;;;;;;7366045;19;20042;-63
2023/03/14 09:55:07;;;;;;;1.45;0.40;;;12.70;1.00;;;;;;7387327;19;20019;-62
2023/03/14 09:57:38;;;;;;;0.30;0.10;;;12.60;1.00;;;;;;7363995;19;20014;-63
2023/03/14 10:00:18;;;;;;;0.80;0.20;;;12.50;1.00;;;;;;7359799;19;20078;-63
2023/03/14 10:02:53;;;;;;;0.30;0.20;;;12.60;1.00;;;;;;7364615;19;20019;-63
2023/03/14 10:05:27;;;;;;;1.05;0.30;;;12.80;1.00;;;;;;7364261;19;20549;-63
2023/03/14 10:07:57;;;;;;;3.47;0.50;;;13.00;1.00;;;;;;7365347;19;20756;-63
2023/03/14 10:10:28;;;;;;;1.27;0.30;;;12.90;1.00;;;;;;7360647;19;20030;-63
2023/03/14 10:13:00;;;;;;;0.95;0.15;;;13.20;1.00;;;;;;7386068;19;20023;-63
2023/03/14 10:15:35;;;;;;;1.42;1.23;;;12.90;1.00;;;;;;7365082;19;20018;-63
2023/03/14 10:18:11;;;;;;;1.60;0.20;;;13.30;1.00;;;;;;7361994;19;20018;-63
2023/03/14 10:20:43;;;;;;;3.65;0.45;;;13.30;1.00;;;;;;7362530;19;20015;-63
2023/03/14 10:23:26;;;;;;;0.85;0.22;;;13.30;1.00;;;;;;7364619;19;20006;-62
2023/03/14 10:26:07;;;;;;;0.60;0.30;;;13.70;1.00;;;;;;7364374;19;20010;-62
2023/03/14 10:28:42;;;;;;;0.80;0.38;;;13.70;1.00;;;;;;7362812;19;20028;-63
2023/03/14 10:31:14;;;;;;;1.23;0.40;;;13.40;1.00;;;;;;7385180;19;20010;-62
2023/03/14 10:33:46;;;;;;;1.40;0.30;;;13.70;1.00;;;;;;7361792;19;20014;-62
2023/03/14 10:36:23;;;;;;;0.82;0.30;;;13.50;1.00;;;;;;7363746;19;20018;-63
2023/03/14 10:39:01;;;;;;;1.77;0.30;;;13.60;1.00;;;;;;7361635;19;20018;-64
2023/03/14 10:41:34;;;;;;;0.60;0.30;;;13.40;1.00;;;;;;7361912;19;20021;-64
2023/03/14 10:44:04;;;;;;;0.65;0.30;;;13.50;1.00;;;;;;7362466;19;20022;-63
2023/03/14 10:46:37;;;;;;;2.78;0.30;;;13.40;1.00;;;;;;7362870;19;20065;-62
2023/03/14 10:49:08;;;;;;;0.77;0.20;;;13.50;1.00;;;;;;7382933;19;20033;-63
2023/03/14 10:51:38;;;;;;;0.40;0.17;;;13.60;1.00;;;;;;7364209;19;20022;-63
2023/03/14 10:54:16;;;;;;;0.82;0.20;;;13.50;1.00;;;;;;7362236;19;20010;-62
2023/03/14 10:56:46;;;;;;;0.40;0.20;;;13.50;1.00;;;;;;7364929;19;20010;-63
2023/03/14 10:59:18;;;;;;;2.45;0.30;;;13.40;1.00;;;;;;7361631;19;20385;-64
2023/03/14 11:01:58;;;;;;;0.65;0.30;;;13.30;1.00;;;;;;7363168;19;20115;-64
2023/03/14 11:04:49;;;;;;;0.57;0.20;;;13.20;1.00;;;;;;7362842;19;20011;-64
2023/03/14 11:07:26;;;;;;;0.57;0.30;;;13.20;1.00;;;;;;7371669;19;20061;-64
2023/03/14 11:10:01;;;;;;;0.55;0.25;;;12.80;1.00;;;;;;7380426;19;20029;-63
2023/03/14 11:12:44;;;;;;;1.08;0.30;;;12.60;1.00;;;;;;7369278;19;20025;-64
2023/03/14 11:15:20;;;;;;;1.60;0.40;;;12.50;1.00;;;;;;7367055;19;20492;-64
2023/03/14 11:18:18;;;;;;;1.63;0.20;;;12.30;1.00;;;;;;7369600;19;20014;-64
2023/03/14 11:20:55;;;;;;;0.63;0.30;;;12.50;1.00;;;;;;7367544;19;20025;-64
2023/03/14 11:23:30;;;;;;;0.95;0.70;;;12.40;1.00;;;;;;7369982;19;20007;-63
2023/03/14 11:26:12;;;;;;;0.70;0.30;;;12.30;1.00;;;;;;7368661;19;20014;-63
2023/03/14 11:28:48;;;;;;;0.98;0.50;;;12.20;1.00;;;;;;7369071;19;20034;-63
2023/03/14 11:31:22;;;;;;;0.55;0.20;;;12.20;1.00;;;;;;7389834;19;20018;-63
2023/03/14 11:33:58;;;;;;;;;;;11.90;1.00;;;;;;7369290;19;20018;-64
2023/03/14 11:36:33;;;;;;;0.65;0.40;;;11.90;1.00;;;;;;7369017;19;19915;-63
2023/03/14 11:39:04;;;;;;;0.75;0.20;;;11.80;1.00;;;;;;7367275;19;20081;-64
2023/03/14 11:41:36;;;;;;;0.43;0.30;;;11.70;1.00;;;;;;7369530;19;20022;-64
2023/03/14 11:44:12;;;;;;;0.50;0.20;;;11.70;1.00;;;;;;7369256;19;20102;-64
2023/03/14 11:46:46;;;;;;;1.13;0.30;;;11.60;1.00;;;;;;7368375;19;20344;-62
2023/03/14 11:49:29;;;;;;;0.77;0.30;;;11.80;1.00;;;;;;7388893;19;20038;-62
2023/03/14 11:52:03;;;;;;;0.32;0.20;;;11.90;1.00;;;;;;7369214;19;20018;-63
2023/03/14 11:54:42;;;;;;;0.95;0.30;;;12.00;1.00;;;;;;7366390;19;20011;-64
2023/03/14 11:57:14;;;;;;;0.40;0.20;;;12.00;1.00;;;;;;7368893;19;20015;-64
2023/03/14 11:59:53;;;;;;;4.28;0.40;;;11.70;1.00;;;;;;7365908;19;20024;-63
2023/03/14 12:02:28;;;;;;;0.90;0.30;;;11.70;1.00;;;;;;7367232;19;20023;-63
2023/03/14 12:05:24;;;;;;;0.20;0.10;;;11.60;1.00;;;;;;7368666;19;20034;-63
2023/03/14 12:08:22;;;;;;;0.47;0.20;;;11.40;1.00;;;;;;7366249;19;20006;-63
2023/03/14 12:10:55;;;;;;;0.75;0.20;;;11.30;1.00;;;;;;7364548;19;20047;-63
2023/03/14 12:13:24;;;;;;;2.13;0.32;;;11.30;1.00;;;;;;7365882;19;20029;-64
2023/03/14 12:15:58;;;;;;;0.50;0.20;;;11.30;1.00;;;;;;7390569;19;20478;-64
2023/03/14 12:18:31;;;;;;;0.90;0.20;;;11.30;1.00;;;;;;7367142;19;20017;-64
2023/03/14 12:21:05;;;;;;;0.68;0.40;;;11.40;1.00;;;;;;7366793;19;20036;-64
2023/03/14 12:23:39;;;;;;;0.70;0.30;;;11.50;1.00;;;;;;7367686;19;20462;-64
2023/03/14 12:26:15;;;;;;;0.88;0.32;;;11.50;1.00;;;;;;7369004;19;20007;-64
2023/03/14 12:28:51;;;;;;;2.08;0.30;;;11.30;1.00;;;;;;7367525;19;20021;-63
2023/03/14 12:31:41;;;;;;;0.40;0.20;;;11.00;1.00;;;;;;7366980;19;20015;-64
2023/03/14 12:34:31;;;;;;;1.23;0.40;;;11.20;1.00;;;;;;7388529;19;20043;-62
2023/03/14 12:37:38;;;;;;;1.50;0.50;;;10.40;1.00;;;;;;7367214;19;20018;-63
2023/03/14 12:40:23;;;;;;;3.00;0.50;;;10.20;1.00;;;;;;7363539;19;20015;-63
2023/03/14 12:43:00;;;;;;;1.00;0.47;;;10.10;1.00;;;;;;7367581;19;20026;-64
2023/03/14 12:45:31;;;;;;;2.88;0.90;;;10.00;1.00;;;;;;7366446;19;20382;-63
2023/03/14 12:48:19;;;;;;;3.13;1.20;;;9.80;1.00;;;;;;7366573;19;20018;-63
2023/03/14 12:50:56;;;;;;;1.50;1.05;;;9.30;1.00;;;;;;7365729;19;20471;-64
2023/03/14 12:53:56;;;;;;;2.70;0.90;;;9.10;1.00;;;;;;7364521;19;20017;-64
2023/03/14 12:56:30;;;;;;;1.65;1.10;;;9.40;1.00;;;;;;7363974;19;20463;-64
2023/03/14 12:59:14;;;;;;;2.97;0.93;;;9.50;1.00;;;;;;7361484;19;20034;-64
2023/03/14 13:01:55;;;;;;;1.83;0.85;;;9.90;1.00;;;;;;7368494;19;20368;-62
2023/03/14 13:04:31;;;;;;;3.35;0.82;;;10.40;1.00;;;;;;7363733;19;20011;-63
2023/03/14 13:07:14;;;;;;;2.53;0.95;;;10.50;1.00;;;;;;7384303;19;20014;-63
2023/03/14 13:10:06;;;;;;;2.78;1.15;;;10.90;1.00;;;;;;7363569;19;20015;-63
2023/03/14 13:12:59;;;;;;;6.15;1.00;;;10.80;1.00;;;;;;7367549;19;20025;-63
2023/03/14 13:15:32;;;;;;;1.27;0.70;;;10.80;1.00;;;;;;7361012;19;20007;-63
2023/03/14 13:18:06;;;;;;;3.28;0.73;;;10.70;1.00;;;;;;7362749;19;20025;-63
2023/03/14 13:20:40;;;;;;;1.38;0.88;;;10.70;1.00;;;;;;7365038;19;20018;-63
2023/03/14 13:23:22;;;;;;;6.35;1.00;;;10.80;1.00;;;;;;7363205;19;20011;-63